Time;durP1;ratioP1;P1;durP2;ratioP2;P2;SDS_P1;SDS_P2;PMS_P1;PMS_P2;Temp;Humidity;BMP_temperature;BMP_pressure;BME280_temperature;BME280_humidity;BME280_pressure;Samples;Min_cycle;Max_cycle;Signal;HPM_P1;HPM_P2
2022/06/28 00:00:30;;;;;;;13.63;12.23;;;13.70;99.90;;;;;;5041608;28;20109;-76
2022/06/28 00:02:56;;;;;;;11.95;10.75;;;13.70;99.90;;;;;;5059548;28;20044;-77
2022/06/28 00:05:22;;;;;;;26.63;13.55;;;13.60;99.90;;;;;;5062966;28;20043;-76
2022/06/28 00:07:48;;;;;;;15.07;13.05;;;13.70;99.90;;;;;;5041694;28;20127;-77
2022/06/28 00:10:15;;;;;;;14.38;12.88;;;13.70;99.90;;;;;;5059129;28;20048;-76
2022/06/28 00:12:41;;;;;;;14.15;12.75;;;13.60;99.90;;;;;;5065977;28;20043;-77
2022/06/28 00:17:54;;;;;;;15.35;11.85;;;13.50;99.90;;;;;;5028274;28;20049;-77
2022/06/28 00:20:20;;;;;;;18.38;12.57;;;13.50;99.90;;;;;;5030693;28;20059;-77
2022/06/28 00:22:46;;;;;;;14.57;13.07;;;13.60;99.90;;;;;;5061960;28;20085;-75
2022/06/28 00:25:12;;;;;;;16.65;11.57;;;13.50;99.90;;;;;;5057743;28;20101;-75
2022/06/28 00:27:37;;;;;;;14.15;12.50;;;13.40;99.90;;;;;;5057716;28;20328;-77
2022/06/28 00:30:05;;;;;;;14.25;12.88;;;13.60;99.90;;;;;;5057589;28;20418;-78
2022/06/28 00:32:32;;;;;;;15.18;13.20;;;13.40;99.90;;;;;;5057873;28;20139;-77
2022/06/28 00:34:58;;;;;;;15.77;12.80;;;13.40;99.90;;;;;;5042708;28;20491;-77
2022/06/28 00:37:24;;;;;;;17.08;13.25;;;13.50;99.90;;;;;;5051946;28;20140;-76
2022/06/28 00:39:50;;;;;;;14.27;11.52;;;13.50;99.90;;;;;;5065780;28;20048;-77
2022/06/28 00:42:16;;;;;;;15.15;11.93;;;13.50;99.90;;;;;;5062960;28;20098;-77
2022/06/28 00:44:41;;;;;;;13.45;11.02;;;13.40;99.90;;;;;;5074448;28;20036;-76
2022/06/28 00:47:09;;;;;;;16.45;12.23;;;13.40;99.90;;;;;;5071582;28;20392;-76
2022/06/28 00:49:41;;;;;;;20.25;12.43;;;13.40;99.90;;;;;;5064905;28;20315;-76
2022/06/28 00:52:08;;;;;;;14.82;12.52;;;13.40;99.90;;;;;;5067115;28;20398;-77
2022/06/28 00:54:34;;;;;;;14.48;11.52;;;13.40;99.90;;;;;;5064877;28;20229;-77
2022/06/28 00:57:00;;;;;;;14.52;10.45;;;13.40;99.90;;;;;;5037825;28;20533;-77
2022/06/28 00:59:26;;;;;;;12.57;9.63;;;13.30;99.90;;;;;;5057231;28;20036;-75
2022/06/28 01:01:52;;;;;;;13.40;11.27;;;13.20;99.90;;;;;;5057314;28;20082;-76
2022/06/28 01:04:18;;;;;;;11.95;10.48;;;13.30;99.90;;;;;;5041283;28;20053;-76
2022/06/28 01:06:44;;;;;;;13.82;10.18;;;13.20;99.90;;;;;;5058248;28;20068;-76
2022/06/28 01:09:10;;;;;;;13.50;10.15;;;13.40;99.90;;;;;;5056463;28;20037;-75
2022/06/28 01:11:35;;;;;;;10.45;9.35;;;13.40;99.90;;;;;;5037642;28;20710;-76
2022/06/28 01:14:08;;;;;;;15.52;10.25;;;13.30;99.90;;;;;;5056261;28;20068;-77
2022/06/28 01:16:35;;;;;;;14.70;9.68;;;13.20;99.90;;;;;;5056974;28;20039;-77
2022/06/28 01:19:01;;;;;;;13.38;9.85;;;13.30;99.90;;;;;;5036959;28;20044;-76
2022/06/28 01:21:28;;;;;;;10.63;9.50;;;13.20;99.90;;;;;;5056110;28;20044;-75
2022/06/28 01:23:54;;;;;;;14.77;9.35;;;13.20;99.90;;;;;;5046005;28;20123;-75
2022/06/28 01:26:21;;;;;;;9.45;8.52;;;13.20;99.90;;;;;;5059542;28;20036;-77
2022/06/28 01:28:48;;;;;;;12.23;8.05;;;13.30;99.90;;;;;;5037640;28;20048;-77
2022/06/28 01:31:14;;;;;;;10.80;8.82;;;13.10;99.90;;;;;;5061747;28;20042;-78
2022/06/28 01:33:40;;;;;;;15.00;10.30;;;13.20;99.90;;;;;;5059315;28;20089;-75
2022/06/28 01:36:08;;;;;;;11.43;8.05;;;13.10;99.90;;;;;;5056891;28;20040;-76
2022/06/28 01:38:34;;;;;;;13.32;9.93;;;13.00;99.90;;;;;;5039188;28;20052;-77
2022/06/28 01:41:01;;;;;;;10.60;9.52;;;13.10;99.90;;;;;;5037236;28;20721;-75
2022/06/28 01:43:27;;;;;;;8.60;7.72;;;13.20;99.90;;;;;;5057472;28;20072;-76
2022/06/28 01:45:54;;;;;;;11.50;8.98;;;13.10;99.90;;;;;;5062448;28;20057;-76
2022/06/28 01:48:20;;;;;;;14.25;8.63;;;13.00;99.90;;;;;;5039086;28;20133;-77
2022/06/28 01:50:49;;;;;;;9.35;8.23;;;13.00;99.90;;;;;;5069444;22;20060;-75
2022/06/28 01:53:15;;;;;;;11.47;10.27;;;13.00;99.90;;;;;;5065191;28;20131;-77
2022/06/28 01:55:41;;;;;;;13.48;8.68;;;12.90;99.90;;;;;;5069286;28;20135;-76
2022/06/28 01:58:08;;;;;;;10.90;9.07;;;13.10;99.90;;;;;;5046113;28;20040;-77
2022/06/28 02:00:35;;;;;;;12.57;8.50;;;13.00;99.90;;;;;;5060112;28;20082;-77
2022/06/28 02:03:01;;;;;;;13.52;8.80;;;13.00;99.90;;;;;;5052041;28;20052;-77
2022/06/28 02:05:27;;;;;;;11.07;8.00;;;12.90;99.90;;;;;;5064725;28;20068;-78
2022/06/28 02:07:54;;;;;;;10.93;8.85;;;12.80;99.90;;;;;;5052223;28;20398;-78
2022/06/28 02:10:21;;;;;;;11.93;9.30;;;13.00;99.90;;;;;;5069430;28;20127;-76
2022/06/28 02:12:46;;;;;;;11.98;8.23;;;12.90;99.90;;;;;;5063589;28;20045;-78
2022/06/28 02:15:13;;;;;;;14.40;8.63;;;12.80;99.90;;;;;;5058721;28;20043;-77
2022/06/28 02:17:40;;;;;;;9.65;8.48;;;12.80;99.90;;;;;;5063604;28;20115;-77
2022/06/28 02:20:06;;;;;;;15.75;7.93;;;12.80;99.90;;;;;;5063291;28;20090;-77
2022/06/28 02:22:32;;;;;;;17.05;9.23;;;12.90;99.90;;;;;;5048797;28;20039;-77
2022/06/28 02:24:58;;;;;;;13.75;8.85;;;12.80;99.90;;;;;;5064043;28;20115;-76
2022/06/28 02:27:24;;;;;;;11.60;9.20;;;12.90;99.90;;;;;;5047507;28;20037;-77
2022/06/28 02:29:50;;;;;;;15.40;7.57;;;12.80;99.90;;;;;;5049352;28;20076;-76
2022/06/28 02:32:15;;;;;;;14.00;10.18;;;12.70;99.90;;;;;;5060895;28;20596;-76
2022/06/28 02:42:37;;;;;;;10.05;7.53;;;12.70;99.90;;;;;;5060232;28;20094;-75
2022/06/28 02:45:03;;;;;;;10.40;7.97;;;12.70;99.90;;;;;;5064140;28;20052;-76
2022/06/28 02:47:28;;;;;;;9.93;7.40;;;12.70;99.90;;;;;;5065555;28;20055;-75
2022/06/28 02:49:54;;;;;;;15.18;8.63;;;12.80;99.90;;;;;;5057679;28;20590;-76
2022/06/28 02:52:20;;;;;;;9.77;8.68;;;12.70;99.90;;;;;;5062004;28;20414;-75
2022/06/28 02:54:45;;;;;;;8.18;7.25;;;12.60;99.90;;;;;;5067974;28;20466;-76
2022/06/28 02:57:11;;;;;;;13.18;8.18;;;12.70;99.90;;;;;;5047117;28;20533;-75
2022/06/28 02:59:37;;;;;;;10.95;7.85;;;12.50;99.90;;;;;;5070241;28;20087;-76
2022/06/28 03:02:03;;;;;;;13.07;8.93;;;12.60;99.90;;;;;;5058447;28;20060;-75
2022/06/28 03:04:28;;;;;;;10.25;7.65;;;12.60;99.90;;;;;;5044921;28;20487;-75
2022/06/28 03:06:54;;;;;;;17.08;9.07;;;12.50;99.90;;;;;;5047087;28;20771;-75
2022/06/28 03:09:20;;;;;;;10.70;8.18;;;12.50;99.90;;;;;;5043926;28;20079;-75
2022/06/28 03:11:45;;;;;;;11.80;7.03;;;12.50;99.90;;;;;;5030001;28;20052;-77
2022/06/28 03:14:11;;;;;;;10.52;8.55;;;12.50;99.90;;;;;;5049484;28;20143;-75
2022/06/28 03:16:37;;;;;;;19.88;8.95;;;12.50;99.90;;;;;;5049681;28;20076;-75
2022/06/28 03:19:02;;;;;;;8.82;7.05;;;12.60;99.90;;;;;;5031976;28;20495;-75
2022/06/28 03:21:28;;;;;;;10.73;7.47;;;12.60;99.90;;;;;;5054519;28;20044;-76
2022/06/28 03:23:53;;;;;;;9.95;7.55;;;12.70;99.90;;;;;;5066419;28;20178;-76
2022/06/28 03:26:19;;;;;;;13.55;8.23;;;12.50;99.90;;;;;;5071757;28;20458;-77
2022/06/28 03:28:45;;;;;;;11.18;7.63;;;12.60;99.90;;;;;;5072587;28;20048;-76
2022/06/28 03:31:10;;;;;;;9.10;6.97;;;12.50;99.90;;;;;;5068232;28;20063;-77
2022/06/28 03:33:36;;;;;;;16.10;8.85;;;12.50;99.90;;;;;;5061391;28;20474;-77
2022/06/28 03:36:02;;;;;;;11.60;7.00;;;12.60;99.90;;;;;;5045880;28;20056;-77
2022/06/28 03:38:27;;;;;;;12.55;7.10;;;12.50;99.90;;;;;;5068004;28;20135;-76
2022/06/28 03:40:53;;;;;;;11.75;7.13;;;12.60;99.90;;;;;;5068561;28;20036;-76
2022/06/28 03:43:19;;;;;;;10.32;7.80;;;12.50;99.90;;;;;;5073980;28;20048;-74
2022/06/28 03:45:45;;;;;;;7.90;6.32;;;12.60;99.90;;;;;;5061981;28;20059;-77
2022/06/28 03:48:10;;;;;;;12.00;6.75;;;12.50;99.90;;;;;;5074063;28;20093;-77
2022/06/28 03:50:36;;;;;;;9.60;7.40;;;12.50;99.90;;;;;;5073602;28;20048;-76
2022/06/28 03:53:02;;;;;;;10.20;7.28;;;12.40;99.90;;;;;;5074734;28;20044;-75
2022/06/28 03:55:27;;;;;;;9.90;6.20;;;12.40;99.90;;;;;;5075988;28;20407;-77
2022/06/28 03:57:54;;;;;;;11.95;6.97;;;12.40;99.90;;;;;;5052277;28;20072;-76
2022/06/28 04:00:20;;;;;;;11.20;7.25;;;12.50;99.90;;;;;;5071405;28;20478;-76
2022/06/28 04:02:45;;;;;;;10.70;7.68;;;12.40;99.90;;;;;;5071484;28;20118;-77
2022/06/28 04:05:11;;;;;;;11.68;7.35;;;12.50;99.90;;;;;;5075775;28;20070;-77
2022/06/28 04:07:37;;;;;;;11.88;8.27;;;12.50;99.90;;;;;;5056559;28;20048;-75
2022/06/28 04:10:02;;;;;;;11.95;7.05;;;12.60;99.90;;;;;;5076294;28;20048;-76
2022/06/28 04:12:28;;;;;;;17.58;7.97;;;12.60;99.90;;;;;;5069464;28;20083;-76
2022/06/28 04:14:54;;;;;;;13.07;7.43;;;12.70;99.90;;;;;;5056215;28;20048;-76
2022/06/28 04:17:19;;;;;;;8.63;6.75;;;13.10;99.90;;;;;;5076841;28;20043;-76
2022/06/28 04:19:45;;;;;;;9.90;6.72;;;12.90;99.90;;;;;;5059797;28;20044;-76
2022/06/28 04:22:11;;;;;;;13.50;6.95;;;12.70;99.90;;;;;;5055919;28;20044;-76
2022/06/28 04:24:36;;;;;;;11.23;6.07;;;12.80;99.90;;;;;;5068850;28;20047;-75
2022/06/28 04:27:02;;;;;;;10.88;6.40;;;12.70;99.90;;;;;;5072738;28;20043;-76
2022/06/28 04:29:28;;;;;;;8.13;5.72;;;12.70;99.90;;;;;;5068248;28;20033;-76
2022/06/28 04:31:54;;;;;;;12.18;5.68;;;12.90;99.90;;;;;;5062784;28;20059;-75
2022/06/28 04:34:19;;;;;;;9.38;5.80;;;13.50;99.90;;;;;;5071266;28;20454;-75
2022/06/28 04:36:45;;;;;;;13.35;6.68;;;13.60;99.90;;;;;;5078294;28;20097;-76
2022/06/28 04:39:11;;;;;;;8.77;6.00;;;13.60;99.90;;;;;;5053986;28;20123;-75
2022/06/28 04:41:36;;;;;;;9.15;6.10;;;14.10;99.90;;;;;;5068872;28;20041;-77
2022/06/28 04:44:02;;;;;;;14.38;5.82;;;13.70;99.90;;;;;;5070768;28;20047;-76
2022/06/28 04:46:28;;;;;;;8.32;5.38;;;13.50;99.90;;;;;;5070751;28;20375;-77
2022/06/28 04:48:54;;;;;;;8.13;5.95;;;13.50;99.90;;;;;;5052022;28;20399;-78
2022/06/28 04:51:20;;;;;;;7.57;5.05;;;13.80;99.90;;;;;;5069336;28;20442;-76
2022/06/28 04:53:47;;;;;;;11.18;5.50;;;14.10;99.90;;;;;;5058310;28;20445;-77
2022/06/28 04:56:14;;;;;;;13.38;7.57;;;13.80;99.90;;;;;;5053184;28;20130;-77
2022/06/28 04:58:40;;;;;;;6.22;5.63;;;13.80;99.90;;;;;;5072907;28;20120;-76
2022/06/28 05:01:06;;;;;;;6.35;5.53;;;13.80;99.90;;;;;;5070143;28;20044;-76
2022/06/28 05:03:31;;;;;;;10.38;5.75;;;13.70;99.90;;;;;;5072261;28;20031;-76
2022/06/28 05:05:58;;;;;;;6.18;5.07;;;13.70;99.90;;;;;;5072529;28;20457;-74
2022/06/28 05:08:23;;;;;;;7.93;5.35;;;13.80;99.90;;;;;;5046977;28;20045;-77
2022/06/28 05:10:49;;;;;;;11.85;5.18;;;13.80;99.90;;;;;;5054548;28;20061;-75
2022/06/28 05:13:15;;;;;;;10.25;5.75;;;13.80;99.90;;;;;;5071209;28;20040;-76
2022/06/28 05:15:41;;;;;;;11.70;5.93;;;13.90;99.90;;;;;;5074689;28;20036;-77
2022/06/28 05:18:07;;;;;;;6.75;5.57;;;13.80;99.90;;;;;;5055624;28;20375;-77
2022/06/28 05:20:32;;;;;;;12.05;5.75;;;13.90;99.90;;;;;;5073989;28;20525;-76
2022/06/28 05:22:58;;;;;;;13.50;5.28;;;13.90;99.90;;;;;;5065711;28;20033;-76
2022/06/28 05:25:25;;;;;;;13.65;5.70;;;14.00;99.90;;;;;;5066007;28;20045;-77
2022/06/28 05:27:51;;;;;;;10.80;5.75;;;14.20;99.90;;;;;;5060345;28;20045;-76
2022/06/28 05:30:17;;;;;;;8.93;5.05;;;14.10;99.90;;;;;;5063430;28;20112;-76
2022/06/28 05:32:43;;;;;;;11.25;5.50;;;14.20;99.90;;;;;;5065764;28;20089;-77
2022/06/28 05:35:09;;;;;;;13.25;5.15;;;14.20;99.90;;;;;;5063380;28;20052;-77
2022/06/28 05:37:34;;;;;;;11.02;4.65;;;14.30;99.90;;;;;;5071653;28;20044;-76
2022/06/28 05:40:00;;;;;;;10.63;4.50;;;14.40;99.90;;;;;;5070642;28;20041;-76
2022/06/28 05:42:26;;;;;;;6.32;4.22;;;14.40;99.90;;;;;;5060391;28;20033;-77
2022/06/28 05:44:52;;;;;;;17.25;6.15;;;14.40;99.90;;;;;;5066238;28;20036;-77
2022/06/28 05:47:17;;;;;;;5.75;3.90;;;14.70;99.90;;;;;;5074154;28;20050;-77
2022/06/28 05:49:43;;;;;;;11.40;4.32;;;14.80;99.90;;;;;;5069521;28;20044;-77
2022/06/28 05:52:09;;;;;;;11.98;5.82;;;14.80;99.90;;;;;;5063929;28;20048;-78
2022/06/28 05:54:35;;;;;;;12.02;5.03;;;14.80;99.90;;;;;;5067758;28;20494;-77
2022/06/28 05:57:01;;;;;;;8.02;4.18;;;14.90;99.90;;;;;;5060266;28;20434;-79
2022/06/28 05:59:27;;;;;;;11.25;4.82;;;15.00;99.90;;;;;;5063911;28;20036;-77
2022/06/28 06:01:55;;;;;;;13.27;4.80;;;15.00;99.90;;;;;;5063405;28;20491;-76
2022/06/28 06:04:22;;;;;;;10.52;5.50;;;15.10;99.90;;;;;;5065891;28;20049;-76
2022/06/28 06:06:48;;;;;;;10.27;4.05;;;15.10;99.90;;;;;;5065686;28;20066;-76
2022/06/28 06:09:14;;;;;;;11.75;3.92;;;15.20;99.90;;;;;;5067549;28;20363;-76
2022/06/28 06:11:39;;;;;;;7.63;3.95;;;15.30;99.90;;;;;;5047385;28;20063;-76
2022/06/28 06:14:05;;;;;;;11.32;3.70;;;15.40;99.90;;;;;;5048478;28;20044;-77
2022/06/28 06:16:31;;;;;;;18.10;4.10;;;15.40;99.90;;;;;;5062065;28;21367;-77
2022/06/28 06:18:57;;;;;;;15.48;5.97;;;15.50;99.90;;;;;;5053586;28;20079;-78
2022/06/28 06:21:23;;;;;;;15.48;5.10;;;15.40;99.90;;;;;;5063470;28;20060;-78
2022/06/28 06:23:48;;;;;;;10.07;4.25;;;15.50;99.90;;;;;;5055941;28;20050;-73
2022/06/28 06:26:14;;;;;;;8.25;3.58;;;15.70;99.90;;;;;;5065058;28;20097;-77
2022/06/28 06:28:39;;;;;;;8.82;3.70;;;15.70;99.90;;;;;;5063175;28;20036;-77
2022/06/28 06:31:07;;;;;;;9.43;3.42;;;15.80;99.90;;;;;;5063104;28;20418;-78
2022/06/28 06:33:33;;;;;;;9.88;4.68;;;15.80;99.90;;;;;;5064853;28;20380;-78
2022/06/28 06:35:59;;;;;;;8.52;3.65;;;15.80;99.90;;;;;;5049429;28;20115;-79
2022/06/28 06:38:25;;;;;;;9.63;4.00;;;15.90;99.90;;;;;;5064675;28;20454;-78
2022/06/28 06:40:50;;;;;;;10.10;3.83;;;16.00;99.90;;;;;;5055847;28;20049;-77
2022/06/28 06:43:16;;;;;;;13.27;3.05;;;16.10;99.90;;;;;;5044762;28;20040;-77
2022/06/28 06:45:42;;;;;;;17.05;5.28;;;16.10;99.90;;;;;;5064704;28;20101;-77
2022/06/28 06:48:08;;;;;;;10.13;3.47;;;16.00;99.90;;;;;;5043264;28;20036;-77
2022/06/28 06:50:33;;;;;;;12.05;3.05;;;16.30;99.90;;;;;;5063625;28;20057;-82
2022/06/28 06:53:02;;;;;;;8.50;3.45;;;16.30;99.90;;;;;;5066116;28;20098;-81
2022/06/28 06:55:28;;;;;;;15.20;5.75;;;17.00;99.90;;;;;;5065440;28;20048;-81
2022/06/28 06:57:53;;;;;;;9.63;3.67;;;16.90;99.90;;;;;;5068803;28;20098;-80
2022/06/28 07:00:19;;;;;;;17.27;3.40;;;17.10;99.90;;;;;;5044093;28;20040;-80
2022/06/28 07:02:45;;;;;;;9.55;3.08;;;17.00;99.90;;;;;;5061982;28;20036;-82
2022/06/28 07:05:11;;;;;;;11.52;3.75;;;17.90;99.90;;;;;;5065596;28;20495;-83
2022/06/28 07:07:37;;;;;;;12.35;2.83;;;18.20;99.90;;;;;;5047540;28;20378;-82
2022/06/28 07:10:03;;;;;;;14.52;3.08;;;17.90;99.90;;;;;;5064882;28;20048;-82
2022/06/28 07:12:30;;;;;;;10.48;2.92;;;19.10;99.90;;;;;;5048198;28;20097;-81
2022/06/28 07:14:55;;;;;;;8.70;2.33;;;20.00;99.90;;;;;;5045395;28;20049;-83
2022/06/28 07:17:21;;;;;;;8.65;2.30;;;19.70;99.90;;;;;;5064508;28;20059;-82
2022/06/28 07:19:47;;;;;;;10.90;2.17;;;21.00;99.90;;;;;;5050851;28;20055;-81
2022/06/28 07:22:13;;;;;;;8.13;1.48;;;19.50;99.90;;;;;;5066867;28;20399;-80
2022/06/28 07:24:38;;;;;;;10.25;2.00;;;19.50;99.90;;;;;;5050014;28;20675;-80
2022/06/28 07:27:04;;;;;;;11.85;2.45;;;18.70;99.90;;;;;;5065874;28;20040;-83
2022/06/28 07:29:30;;;;;;;9.40;2.30;;;20.40;99.90;;;;;;5066590;28;20559;-82
2022/06/28 07:31:56;;;;;;;8.90;2.17;;;21.40;99.90;;;;;;5066478;28;20063;-81
2022/06/28 07:34:23;;;;;;;5.38;1.42;;;21.30;99.90;;;;;;5057673;28;20044;-83
2022/06/28 07:36:49;;;;;;;8.52;2.35;;;22.10;99.90;;;;;;5048235;28;20441;-78
2022/06/28 07:39:15;;;;;;;9.27;1.73;;;22.60;99.90;;;;;;5064497;28;20513;-81
2022/06/28 07:41:40;;;;;;;6.70;2.55;;;22.50;99.90;;;;;;5060938;28;20045;-81
2022/06/28 07:44:06;;;;;;;6.35;1.52;;;21.80;99.90;;;;;;5065350;28;20553;-81
2022/06/28 07:46:32;;;;;;;5.65;1.58;;;21.00;99.90;;;;;;5064229;28;20124;-81
2022/06/28 07:48:58;;;;;;;6.25;1.25;;;21.20;99.90;;;;;;5066802;28;20066;-81
2022/06/28 07:54:08;;;;;;;7.00;1.75;;;20.00;99.90;;;;;;5051436;28;20502;-79
2022/06/28 07:56:34;;;;;;;6.95;2.05;;;19.60;99.90;;;;;;5062494;28;20043;-75
2022/06/28 07:58:59;;;;;;;8.77;2.60;;;19.30;99.90;;;;;;5064201;28;20440;-82
2022/06/28 08:01:25;;;;;;;4.43;1.38;;;19.60;99.90;;;;;;5066065;28;20082;-82
2022/06/28 08:03:51;;;;;;;5.57;1.50;;;19.80;99.90;;;;;;5059115;28;20490;-84
2022/06/28 08:06:17;;;;;;;5.93;1.63;;;19.80;99.90;;;;;;5067829;28;20128;-83
2022/06/28 08:08:43;;;;;;;5.78;2.00;;;19.60;99.90;;;;;;5054605;28;20108;-83
2022/06/28 08:11:09;;;;;;;9.10;2.42;;;19.70;99.90;;;;;;5050068;28;20072;-82
2022/06/28 08:13:37;;;;;;;7.93;1.33;;;19.90;99.90;;;;;;5054315;28;20063;-82
2022/06/28 08:16:03;;;;;;;8.50;1.23;;;20.10;99.90;;;;;;5067407;28;20132;-82
2022/06/28 08:18:29;;;;;;;9.88;2.58;;;20.10;99.90;;;;;;5058648;28;20055;-82
2022/06/28 08:20:55;;;;;;;6.85;1.77;;;20.00;99.90;;;;;;5064914;28;20049;-81
2022/06/28 08:23:21;;;;;;;10.45;1.52;;;20.30;99.90;;;;;;5067442;28;20099;-81
2022/06/28 08:25:47;;;;;;;6.97;1.55;;;19.90;99.90;;;;;;5034703;28;20161;-82
2022/06/28 08:28:13;;;;;;;6.43;1.55;;;19.80;99.90;;;;;;5065754;28;20052;-81
2022/06/28 08:30:41;;;;;;;8.60;1.85;;;20.00;99.90;;;;;;5066682;28;20040;-81
2022/06/28 08:33:08;;;;;;;7.20;1.70;;;20.40;99.90;;;;;;5067849;28;20071;-80
2022/06/28 08:35:34;;;;;;;6.07;1.15;;;20.40;99.90;;;;;;5067035;28;20110;-79
2022/06/28 08:38:00;;;;;;;6.20;1.40;;;20.50;99.90;;;;;;5066684;28;20275;-81
2022/06/28 08:40:28;;;;;;;7.43;1.50;;;20.70;99.90;;;;;;5066267;28;20032;-80
2022/06/28 08:42:57;;;;;;;11.02;2.25;;;20.80;99.90;;;;;;5065172;28;20032;-82
2022/06/28 08:45:23;;;;;;;5.00;1.42;;;20.70;99.90;;;;;;5067989;28;20048;-81
2022/06/28 08:47:54;;;;;;;11.95;3.22;;;21.00;99.90;;;;;;5066647;28;20036;-81
2022/06/28 08:50:27;;;;;;;5.13;1.23;;;20.90;99.90;;;;;;5066710;28;20411;-81
2022/06/28 08:52:54;;;;;;;9.05;2.65;;;20.20;99.90;;;;;;5065673;28;20059;-80
2022/06/28 08:55:21;;;;;;;4.50;1.35;;;20.20;99.90;;;;;;5031954;28;20047;-78
2022/06/28 08:57:47;;;;;;;7.18;1.90;;;19.90;99.90;;;;;;5066146;28;20041;-80
2022/06/28 09:00:13;;;;;;;11.25;1.90;;;19.90;99.90;;;;;;5067354;28;20353;-81
2022/06/28 09:02:39;;;;;;;8.10;2.03;;;20.40;99.90;;;;;;5057061;28;20469;-79
2022/06/28 09:05:05;;;;;;;6.65;1.70;;;20.70;99.90;;;;;;5049704;28;20167;-78
2022/06/28 09:07:31;;;;;;;5.22;1.23;;;20.90;99.90;;;;;;5062648;28;20040;-78
2022/06/28 09:09:56;;;;;;;7.90;2.20;;;21.10;99.90;;;;;;5066199;28;20463;-78
2022/06/28 09:12:22;;;;;;;9.75;1.33;;;21.10;99.90;;;;;;5064614;28;20086;-76
2022/06/28 09:14:48;;;;;;;4.63;1.20;;;21.30;99.90;;;;;;5064678;28;20044;-74
2022/06/28 09:17:21;;;;;;;4.65;0.88;;;21.30;99.90;;;;;;5066957;28;20375;-78
2022/06/28 09:19:48;;;;;;;4.93;1.63;;;21.30;99.90;;;;;;5048723;28;20052;-79
2022/06/28 09:22:43;;;;;;;11.60;2.25;;;21.20;99.90;;;;;;5065588;28;20414;-78
2022/06/28 09:25:30;;;;;;;4.47;1.50;;;21.50;99.90;;;;;;5051719;28;20062;-77
2022/06/28 09:28:00;;;;;;;12.05;1.83;;;21.50;99.90;;;;;;5063252;28;20086;-79
2022/06/28 09:30:28;;;;;;;11.20;2.60;;;21.50;99.90;;;;;;5067001;28;20052;-78
2022/06/28 09:32:55;;;;;;;7.95;2.15;;;21.50;99.90;;;;;;5065092;28;20048;-78
2022/06/28 09:35:24;;;;;;;6.85;1.40;;;21.00;99.90;;;;;;5064387;28;20048;-78
2022/06/28 09:37:56;;;;;;;4.95;1.33;;;21.20;99.90;;;;;;5066211;28;20448;-78
2022/06/28 09:40:26;;;;;;;9.65;1.80;;;20.90;99.90;;;;;;5065741;28;20280;-78
2022/06/28 09:43:13;;;;;;;8.70;2.03;;;20.70;99.90;;;;;;5063201;28;20115;-78
2022/06/28 09:45:49;;;;;;;5.28;1.23;;;20.40;99.90;;;;;;5065175;28;20117;-78
2022/06/28 09:48:20;;;;;;;6.55;1.33;;;20.00;99.90;;;;;;5061396;28;20043;-78
2022/06/28 09:50:47;;;;;;;7.90;1.65;;;19.80;99.90;;;;;;5063933;28;20387;-77
2022/06/28 09:53:15;;;;;;;6.80;1.42;;;20.00;99.90;;;;;;5051104;28;20048;-77
2022/06/28 09:55:42;;;;;;;4.45;1.00;;;20.50;99.90;;;;;;5066717;28;20111;-78
2022/06/28 09:58:09;;;;;;;9.38;1.70;;;20.70;99.90;;;;;;5064816;28;20093;-78
2022/06/28 10:00:39;;;;;;;5.10;1.00;;;21.00;99.90;;;;;;5046263;28;20048;-77
2022/06/28 10:03:05;;;;;;;;;;;21.20;99.90;;;;;;5061502;28;20032;-78
2022/06/28 10:05:31;;;;;;;7.40;1.17;;;21.30;99.90;;;;;;5064306;28;20329;-77
2022/06/28 10:07:57;;;;;;;3.67;1.50;;;21.30;99.90;;;;;;5061936;28;20055;-76
2022/06/28 10:10:24;;;;;;;6.18;1.02;;;21.40;99.90;;;;;;5065590;28;20040;-78
2022/06/28 10:15:37;;;;;;;6.82;1.40;;;21.00;99.90;;;;;;5065241;28;20460;-79
2022/06/28 10:18:18;;;;;;;9.40;1.85;;;20.40;99.90;;;;;;5065237;28;20154;-77
2022/06/28 10:20:44;;;;;;;4.78;1.23;;;20.10;99.90;;;;;;5065402;28;20045;-77
2022/06/28 10:23:33;;;;;;;5.30;1.13;;;20.20;99.90;;;;;;5049743;28;20128;-77
2022/06/28 10:26:02;;;;;;;3.60;0.80;;;20.50;99.90;;;;;;5046438;28;20138;-77
2022/06/28 10:28:34;;;;;;;8.38;1.30;;;20.90;99.90;;;;;;5064933;28;20124;-76
2022/06/28 10:31:24;;;;;;;11.63;1.38;;;21.10;99.90;;;;;;5064454;28;20054;-76
2022/06/28 10:33:59;;;;;;;5.15;1.23;;;21.40;99.90;;;;;;5053838;28;20083;-77
2022/06/28 10:36:27;;;;;;;5.30;2.47;;;21.70;99.90;;;;;;5064764;28;20070;-77
2022/06/28 10:39:08;;;;;;;5.10;1.25;;;21.60;99.90;;;;;;5065051;28;20438;-79
2022/06/28 10:41:48;;;;;;;5.10;1.27;;;20.80;99.90;;;;;;5047501;28;20464;-79
2022/06/28 10:44:23;;;;;;;12.50;3.67;;;20.50;99.90;;;;;;5060298;28;20553;-80
2022/06/28 10:47:05;;;;;;;7.07;1.70;;;21.20;99.90;;;;;;5065353;28;20098;-78
2022/06/28 10:49:45;;;;;;;3.55;1.27;;;21.60;99.90;;;;;;5063909;28;20044;-79
2022/06/28 10:52:16;;;;;;;4.18;1.05;;;21.70;99.90;;;;;;5064068;28;20059;-79
2022/06/28 10:54:56;;;;;;;5.47;1.40;;;21.80;99.90;;;;;;5047236;28;20399;-79
2022/06/28 10:57:32;;;;;;;4.28;1.00;;;22.00;99.90;;;;;;5044990;28;20100;-78
2022/06/28 11:00:00;;;;;;;5.82;1.33;;;22.30;99.90;;;;;;5046071;28;20032;-79
2022/06/28 11:02:50;;;;;;;4.40;1.95;;;22.20;99.90;;;;;;5045287;28;20040;-78
2022/06/28 11:05:23;;;;;;;8.88;2.30;;;22.30;99.90;;;;;;5039665;28;20049;-78
2022/06/28 11:08:20;;;;;;;4.88;1.65;;;22.40;99.90;;;;;;5046784;28;20044;-78
2022/06/28 11:11:05;;;;;;;6.57;1.38;;;22.20;99.90;;;;;;5030388;28;20110;-78
2022/06/28 11:13:31;;;;;;;6.38;1.38;;;22.40;99.90;;;;;;5062783;28;20036;-78
2022/06/28 11:15:57;;;;;;;12.57;1.75;;;22.40;99.90;;;;;;5065128;28;20487;-77
2022/06/28 11:18:26;;;;;;;7.03;1.73;;;22.60;99.90;;;;;;5064973;28;20078;-77
2022/06/28 11:20:52;;;;;;;4.60;1.60;;;22.30;99.90;;;;;;5065338;28;20045;-76
2022/06/28 11:23:27;;;;;;;5.70;1.30;;;21.90;99.90;;;;;;5054184;28;20177;-76
2022/06/28 11:29:01;;;;;;;8.93;1.58;;;22.30;99.90;;;;;;5047212;28;20048;-76
2022/06/28 11:31:29;;;;;;;5.35;1.13;;;21.90;99.90;;;;;;5064140;28;20052;-78
2022/06/28 11:33:55;;;;;;;8.68;1.40;;;21.60;99.90;;;;;;5059094;28;20040;-78
2022/06/28 11:36:25;;;;;;;6.63;1.55;;;21.30;99.90;;;;;;5064805;28;20060;-79
2022/06/28 11:38:50;;;;;;;8.45;2.53;;;21.70;99.90;;;;;;5062588;28;20041;-77
2022/06/28 11:41:30;;;;;;;9.40;1.58;;;22.10;99.90;;;;;;5046827;28;20131;-79
2022/06/28 11:44:01;;;;;;;7.65;2.10;;;22.00;99.90;;;;;;5063730;28;20032;-78
2022/06/28 11:46:28;;;;;;;5.30;1.30;;;22.20;99.90;;;;;;5064776;28;20418;-79
2022/06/28 11:48:55;;;;;;;7.72;2.63;;;22.40;99.90;;;;;;5051487;28;20473;-78
2022/06/28 11:51:29;;;;;;;9.23;2.17;;;22.40;99.90;;;;;;5062750;28;20060;-79
2022/06/28 11:53:55;;;;;;;4.07;1.20;;;22.60;99.90;;;;;;5063102;28;20106;-78
2022/06/28 11:56:20;;;;;;;7.68;1.55;;;22.30;99.90;;;;;;5062893;28;20049;-77
2022/06/28 11:58:46;;;;;;;6.03;2.15;;;21.70;99.90;;;;;;5064835;28;20131;-77
2022/06/28 12:01:14;;;;;;;5.70;1.08;;;21.50;99.90;;;;;;5059724;28;20540;-77
2022/06/28 12:03:42;;;;;;;5.72;1.40;;;21.70;99.90;;;;;;5064627;28;20514;-78
2022/06/28 12:06:10;;;;;;;3.90;0.88;;;22.10;99.90;;;;;;5068837;28;20426;-79
2022/06/28 12:08:47;;;;;;;7.97;1.65;;;22.50;99.90;;;;;;5068538;28;20041;-77
2022/06/28 12:11:34;;;;;;;5.47;1.27;;;23.00;99.90;;;;;;5065558;28;20045;-77
2022/06/28 12:14:02;;;;;;;5.50;1.60;;;23.00;99.90;;;;;;5066739;28;20047;-82
2022/06/28 12:16:34;;;;;;;4.40;1.05;;;23.00;99.90;;;;;;5065707;28;20032;-79
2022/06/28 12:19:01;;;;;;;5.30;1.00;;;22.70;99.90;;;;;;5067833;28;20045;-79
2022/06/28 12:21:28;;;;;;;4.68;1.00;;;22.50;99.90;;;;;;5067782;28;20040;-78
2022/06/28 12:23:56;;;;;;;7.38;0.90;;;22.30;99.90;;;;;;5067413;28;20101;-78
2022/06/28 12:26:37;;;;;;;6.78;1.52;;;22.90;99.90;;;;;;5050415;28;20455;-79
2022/06/28 12:29:03;;;;;;;7.07;1.23;;;23.00;99.90;;;;;;5066464;28;20041;-78
2022/06/28 12:31:28;;;;;;;5.00;1.45;;;23.20;99.90;;;;;;5066594;28;20043;-80
2022/06/28 12:33:54;;;;;;;2.97;0.77;;;23.10;99.90;;;;;;5056907;28;20052;-80
2022/06/28 12:36:19;;;;;;;4.78;1.35;;;23.30;99.90;;;;;;5049365;28;20051;-79
2022/06/28 12:38:45;;;;;;;5.93;1.02;;;23.40;99.90;;;;;;5065914;28;20398;-79
2022/06/28 12:41:11;;;;;;;4.28;1.52;;;23.40;99.90;;;;;;5066017;28;20541;-79
2022/06/28 12:43:36;;;;;;;3.58;0.95;;;23.50;99.90;;;;;;5066139;28;20049;-79
2022/06/28 12:46:02;;;;;;;6.70;1.45;;;23.50;99.90;;;;;;5065979;28;20071;-79
2022/06/28 12:48:28;;;;;;;4.68;1.08;;;23.40;99.90;;;;;;5049617;28;20426;-78
2022/06/28 12:50:53;;;;;;;3.33;0.60;;;23.40;99.90;;;;;;5064783;28;20064;-79
2022/06/28 12:53:20;;;;;;;3.60;0.80;;;23.40;99.90;;;;;;5065775;28;20814;-79
2022/06/28 12:55:46;;;;;;;2.10;0.70;;;23.50;99.90;;;;;;5058873;28;20297;-79
2022/06/28 12:58:12;;;;;;;3.90;0.80;;;23.50;99.90;;;;;;5066545;28;20127;-80
2022/06/28 13:00:38;;;;;;;3.92;0.88;;;23.60;99.90;;;;;;5067102;28;20123;-80